createdAt,value
2022-12-25T00:00:08.472Z,80.17
2022-12-25T00:00:29.706Z,80.21
2022-12-25T00:00:50.842Z,80.16
2022-12-25T00:01:11.943Z,80.16
2022-12-25T00:01:32.989Z,80.21
2022-12-25T00:01:54.045Z,80.21
2022-12-25T00:02:15.184Z,80.18
2022-12-25T00:02:36.327Z,80.19
2022-12-25T00:02:57.527Z,80.25
2022-12-25T00:03:18.814Z,80.27
2022-12-25T00:03:40.123Z,80.33
2022-12-25T00:04:01.406Z,80.28
2022-12-25T00:04:22.502Z,80.36
2022-12-25T00:04:43.542Z,80.37
2022-12-25T00:05:04.606Z,80.36
2022-12-25T00:05:25.721Z,80.40
2022-12-25T00:05:46.767Z,80.38
2022-12-25T00:06:07.828Z,80.38
2022-12-25T00:06:28.919Z,80.41
2022-12-25T00:06:49.967Z,80.42
2022-12-25T00:07:11.031Z,80.48
2022-12-25T00:07:32.099Z,80.50
2022-12-25T00:07:53.154Z,80.46
2022-12-25T00:08:14.264Z,80.46
2022-12-25T00:08:35.278Z,80.44
2022-12-25T00:08:56.331Z,80.48
2022-12-25T00:09:17.389Z,80.49
2022-12-25T00:09:38.443Z,80.46
2022-12-25T00:09:59.502Z,80.49
2022-12-25T00:10:20.576Z,80.53
2022-12-25T00:10:45.310Z,80.59
2022-12-25T00:11:06.746Z,80.63
2022-12-25T00:11:27.808Z,80.61
2022-12-25T00:11:48.856Z,80.56
2022-12-25T00:12:09.915Z,80.53
2022-12-25T00:12:30.986Z,80.54
2022-12-25T00:12:52.071Z,80.48
2022-12-25T00:13:13.119Z,80.49
2022-12-25T00:13:34.191Z,80.50
2022-12-25T00:13:55.223Z,80.51
2022-12-25T00:14:16.289Z,80.51
2022-12-25T00:14:37.341Z,80.50
2022-12-25T00:14:58.427Z,80.53
2022-12-25T00:15:19.457Z,80.55
2022-12-25T00:15:40.547Z,80.53
2022-12-25T00:16:01.628Z,80.56
2022-12-25T00:16:22.864Z,80.62
2022-12-25T00:16:43.989Z,80.60
2022-12-25T00:17:05.081Z,80.60
2022-12-25T00:17:26.123Z,80.58
2022-12-25T00:17:47.179Z,80.57
2022-12-25T00:18:08.252Z,80.53
2022-12-25T00:18:29.296Z,80.54
2022-12-25T00:18:50.351Z,80.53
2022-12-25T00:19:11.410Z,80.54
2022-12-25T00:19:32.525Z,80.51
2022-12-25T00:19:53.561Z,80.46
2022-12-25T00:20:14.627Z,80.45
2022-12-25T00:20:35.681Z,80.50
2022-12-25T00:20:56.739Z,80.46
2022-12-25T00:21:17.800Z,80.45
2022-12-25T00:21:38.901Z,80.43
2022-12-25T00:21:59.961Z,80.42
2022-12-25T00:22:20.992Z,80.42
2022-12-25T00:22:42.051Z,80.40
2022-12-25T00:23:03.111Z,80.45
2022-12-25T00:23:24.176Z,80.45
2022-12-25T00:23:45.267Z,80.44
2022-12-25T00:24:06.316Z,80.44
2022-12-25T00:24:27.362Z,80.45
2022-12-25T00:24:48.446Z,80.45
2022-12-25T00:25:09.503Z,80.40
2022-12-25T00:25:30.540Z,80.44
2022-12-25T00:25:51.609Z,80.40
2022-12-25T00:26:12.667Z,80.38
2022-12-25T00:26:33.721Z,80.42
2022-12-25T00:26:54.806Z,80.36
2022-12-25T00:27:15.872Z,80.35
2022-12-25T00:27:36.935Z,80.38
2022-12-25T00:27:57.998Z,80.33
2022-12-25T00:28:19.094Z,80.39
2022-12-25T00:28:40.159Z,80.37
2022-12-25T00:29:01.217Z,80.35
2022-12-25T00:29:22.272Z,80.38
2022-12-25T00:29:43.325Z,80.44
2022-12-25T00:30:04.382Z,80.37
2022-12-25T00:30:25.470Z,80.40
2022-12-25T00:30:46.508Z,80.46
2022-12-25T00:31:07.696Z,80.42
2022-12-25T00:31:29.006Z,80.37
2022-12-25T00:31:50.173Z,80.34
2022-12-25T00:32:11.416Z,80.35
2022-12-25T00:32:32.524Z,80.32
2022-12-25T00:32:53.540Z,80.32
2022-12-25T00:33:14.613Z,80.31
2022-12-25T00:33:35.658Z,80.34
2022-12-25T00:33:56.718Z,80.34
2022-12-25T00:34:17.778Z,80.36
2022-12-25T00:34:38.895Z,80.37
2022-12-25T00:34:59.944Z,80.36
2022-12-25T00:35:20.984Z,80.36
2022-12-25T00:35:42.047Z,80.34
2022-12-25T00:36:03.113Z,80.35
2022-12-25T00:36:24.156Z,80.34
2022-12-25T00:36:45.249Z,80.32
2022-12-25T00:37:06.282Z,80.33
2022-12-25T00:37:27.497Z,80.34
2022-12-25T00:37:48.563Z,80.36
2022-12-25T00:38:09.623Z,80.36
2022-12-25T00:38:30.677Z,80.35
2022-12-25T00:38:51.747Z,80.36
2022-12-25T00:39:12.802Z,80.40
2022-12-25T00:39:33.858Z,80.36
2022-12-25T00:39:54.930Z,80.41
2022-12-25T00:40:15.989Z,80.39
2022-12-25T00:40:37.055Z,80.39
2022-12-25T00:40:58.118Z,80.43
2022-12-25T00:41:19.196Z,80.42
2022-12-25T00:41:40.247Z,80.37
2022-12-25T00:42:01.323Z,80.41
2022-12-25T00:42:22.355Z,80.42
2022-12-25T00:42:43.562Z,80.38
2022-12-25T00:43:04.617Z,80.39
2022-12-25T00:43:25.680Z,80.41
2022-12-25T00:43:46.804Z,80.37
2022-12-25T00:44:07.856Z,80.43
2022-12-25T00:44:28.896Z,80.46
2022-12-25T00:44:49.972Z,80.46
2022-12-25T00:45:11.032Z,80.53
2022-12-25T00:45:32.155Z,80.52
2022-12-25T00:45:53.283Z,80.56
2022-12-25T00:46:14.520Z,80.60
2022-12-25T00:46:35.725Z,80.56
2022-12-25T00:46:56.794Z,80.60
2022-12-25T00:47:17.928Z,80.61
2022-12-25T00:47:38.992Z,80.62
2022-12-25T00:48:00.128Z,80.59
2022-12-25T00:48:21.176Z,80.65
2022-12-25T00:48:42.206Z,80.64
2022-12-25T00:49:03.270Z,80.74
2022-12-25T00:49:24.316Z,80.68
2022-12-25T00:49:45.389Z,80.70
2022-12-25T00:50:06.441Z,80.70
2022-12-25T00:50:27.508Z,80.77
2022-12-25T00:50:48.549Z,80.71
2022-12-25T00:51:09.651Z,80.73
2022-12-25T00:51:30.689Z,80.76
2022-12-25T00:51:51.764Z,80.75
2022-12-25T00:52:12.819Z,80.68
2022-12-25T00:52:33.889Z,80.69
2022-12-25T00:52:55.077Z,80.63
2022-12-25T00:53:16.136Z,80.71
2022-12-25T00:53:37.238Z,80.68
2022-12-25T00:53:58.281Z,80.68
2022-12-25T00:54:19.338Z,80.66
2022-12-25T00:54:40.410Z,80.59
2022-12-25T00:55:01.484Z,80.60
2022-12-25T00:55:22.548Z,80.59
2022-12-25T00:55:43.601Z,80.53
2022-12-25T00:56:04.663Z,80.53
2022-12-25T00:56:25.741Z,80.49
2022-12-25T00:56:46.784Z,80.53
2022-12-25T00:57:07.837Z,80.46
2022-12-25T00:57:28.902Z,80.48
2022-12-25T00:57:49.963Z,80.45
2022-12-25T00:58:11.202Z,80.48
2022-12-25T00:58:32.297Z,80.44
2022-12-25T00:58:53.343Z,80.44
2022-12-25T00:59:14.392Z,80.45
2022-12-25T00:59:35.460Z,80.41
2022-12-25T00:59:56.508Z,80.40
2022-12-25T01:00:17.596Z,80.43
2022-12-25T01:00:38.701Z,80.41
2022-12-25T01:00:59.763Z,80.41
2022-12-25T01:01:20.968Z,80.37
2022-12-25T01:01:42.417Z,80.44
2022-12-25T01:02:03.676Z,80.45
2022-12-25T01:02:25.196Z,80.45
2022-12-25T01:02:46.606Z,80.44
2022-12-25T01:03:07.783Z,80.41
2022-12-25T01:03:29.165Z,80.39
2022-12-25T01:03:50.198Z,80.36
2022-12-25T01:04:11.268Z,80.35
2022-12-25T01:04:32.342Z,80.33
2022-12-25T01:04:53.396Z,80.33
2022-12-25T01:05:14.435Z,80.32
2022-12-25T01:05:35.556Z,80.28
2022-12-25T01:05:56.567Z,80.32
2022-12-25T01:06:17.629Z,80.25
2022-12-25T01:06:38.687Z,80.28
2022-12-25T01:06:59.753Z,80.24
2022-12-25T01:07:20.802Z,80.22
2022-12-25T01:07:41.897Z,80.23
2022-12-25T01:08:02.912Z,80.24
2022-12-25T01:08:23.974Z,80.27
2022-12-25T01:08:45.199Z,80.29
2022-12-25T01:09:06.255Z,80.29
2022-12-25T01:09:27.312Z,80.27
2022-12-25T01:09:48.401Z,80.22
2022-12-25T01:10:09.522Z,80.20
2022-12-25T01:10:30.541Z,80.21
2022-12-25T01:10:51.606Z,80.28
2022-12-25T01:11:12.655Z,80.24
2022-12-25T01:11:33.717Z,80.22
2022-12-25T01:11:54.775Z,80.21
2022-12-25T01:12:15.870Z,80.24
2022-12-25T01:12:36.913Z,80.19
2022-12-25T01:12:57.971Z,80.18
2022-12-25T01:13:19.047Z,80.17
2022-12-25T01:13:40.148Z,80.22
2022-12-25T01:14:01.248Z,80.15
2022-12-25T01:14:22.284Z,80.18
2022-12-25T01:14:43.366Z,80.21
2022-12-25T01:15:04.464Z,80.20
2022-12-25T01:15:25.509Z,80.15
2022-12-25T01:15:46.574Z,80.20
2022-12-25T01:16:07.710Z,80.18
2022-12-25T01:16:28.831Z,80.23
2022-12-25T01:16:50.005Z,80.22
2022-12-25T01:17:11.082Z,80.25
2022-12-25T01:17:32.137Z,80.23
2022-12-25T01:17:53.216Z,80.22
2022-12-25T01:18:14.277Z,80.27
2022-12-25T01:18:35.342Z,80.22
2022-12-25T01:18:56.463Z,80.19
2022-12-25T01:19:17.533Z,80.18
2022-12-25T01:19:38.583Z,80.19
2022-12-25T01:20:00.173Z,80.19
2022-12-25T01:20:21.208Z,80.17
2022-12-25T01:20:42.262Z,80.15
2022-12-25T01:21:03.379Z,80.21
2022-12-25T01:21:24.406Z,80.19
2022-12-25T01:21:45.481Z,80.13
2022-12-25T01:22:06.562Z,80.12
2022-12-25T01:22:27.623Z,80.16
2022-12-25T01:22:48.679Z,80.15
2022-12-25T01:23:09.744Z,80.12
2022-12-25T01:23:30.789Z,80.14
2022-12-25T01:23:51.859Z,80.11
2022-12-25T01:24:12.918Z,80.11
2022-12-25T01:24:33.992Z,80.09
2022-12-25T01:24:55.053Z,80.08
2022-12-25T01:25:16.123Z,80.14
2022-12-25T01:25:37.181Z,80.12
2022-12-25T01:25:58.256Z,80.15
2022-12-25T01:26:19.316Z,80.15
2022-12-25T01:26:40.369Z,80.12
2022-12-25T01:27:01.436Z,80.15
2022-12-25T01:27:22.502Z,80.13
2022-12-25T01:27:43.575Z,80.12
2022-12-25T01:28:04.618Z,80.14
2022-12-25T01:28:25.708Z,80.11
2022-12-25T01:28:46.737Z,80.16
2022-12-25T01:29:07.815Z,80.15
2022-12-25T01:29:28.888Z,80.15
2022-12-25T01:29:50.104Z,80.15
2022-12-25T01:30:11.161Z,80.13
2022-12-25T01:30:32.231Z,80.13
2022-12-25T01:30:53.281Z,80.20
2022-12-25T01:31:14.426Z,80.19
2022-12-25T01:31:35.526Z,80.20
2022-12-25T01:31:56.596Z,80.20
2022-12-25T01:32:17.647Z,80.22
2022-12-25T01:32:38.711Z,80.21
2022-12-25T01:32:59.782Z,80.20
2022-12-25T01:33:20.840Z,80.26
2022-12-25T01:33:41.907Z,80.25
2022-12-25T01:34:02.970Z,80.24
2022-12-25T01:34:24.030Z,80.24
2022-12-25T01:34:49.262Z,80.23
2022-12-25T01:35:12.228Z,80.31
2022-12-25T01:35:33.285Z,80.28
2022-12-25T01:35:54.350Z,80.32
2022-12-25T01:36:15.400Z,80.33
2022-12-25T01:36:36.468Z,80.33
2022-12-25T01:36:57.516Z,80.35
2022-12-25T01:37:18.589Z,80.38
2022-12-25T01:37:39.645Z,80.42
2022-12-25T01:38:00.696Z,80.35
2022-12-25T01:38:21.766Z,80.34
2022-12-25T01:38:42.825Z,80.36
2022-12-25T01:39:03.883Z,80.34
2022-12-25T01:39:24.945Z,80.35
2022-12-25T01:39:46.047Z,80.43
2022-12-25T01:40:07.217Z,80.42
2022-12-25T01:40:28.275Z,80.42
2022-12-25T01:40:49.343Z,80.39
2022-12-25T01:41:10.405Z,80.37
2022-12-25T01:41:31.460Z,80.41
2022-12-25T01:41:52.521Z,80.34
2022-12-25T01:42:13.618Z,80.37
2022-12-25T01:42:34.654Z,80.30
2022-12-25T01:42:55.728Z,80.37
2022-12-25T01:43:18.729Z,80.32
2022-12-25T01:43:39.853Z,80.35
2022-12-25T01:44:00.922Z,80.32
2022-12-25T01:44:22.004Z,80.35
2022-12-25T01:44:43.048Z,80.34
2022-12-25T01:45:04.100Z,80.35
2022-12-25T01:45:25.369Z,80.28
2022-12-25T01:45:46.454Z,80.31
2022-12-25T01:46:07.627Z,80.37
2022-12-25T01:46:28.732Z,80.37
2022-12-25T01:46:49.770Z,80.36
2022-12-25T01:47:10.815Z,80.30
2022-12-25T01:47:31.887Z,80.33
2022-12-25T01:47:52.937Z,80.30
2022-12-25T01:48:13.999Z,80.31
2022-12-25T01:48:35.088Z,80.22
2022-12-25T01:48:56.131Z,80.25
2022-12-25T01:49:17.223Z,80.24
2022-12-25T01:49:38.251Z,80.27
2022-12-25T01:49:59.311Z,80.22
2022-12-25T01:50:20.363Z,80.23
2022-12-25T01:50:41.448Z,80.27
2022-12-25T01:51:02.515Z,80.28
2022-12-25T01:51:23.592Z,80.29
2022-12-25T01:51:44.655Z,80.31
2022-12-25T01:52:05.696Z,80.28
2022-12-25T01:52:26.751Z,80.34
2022-12-25T01:52:47.810Z,80.38
2022-12-25T01:53:08.870Z,80.40
2022-12-25T01:53:30.044Z,80.39
2022-12-25T01:53:51.076Z,80.41
2022-12-25T01:54:12.119Z,80.43
2022-12-25T01:54:33.202Z,80.44
2022-12-25T01:54:54.252Z,80.42
2022-12-25T01:55:15.329Z,80.42
2022-12-25T01:55:36.400Z,80.44
2022-12-25T01:55:57.483Z,80.42
2022-12-25T01:56:18.569Z,80.40
2022-12-25T01:56:39.623Z,80.38
2022-12-25T01:57:00.673Z,80.42
2022-12-25T01:57:21.711Z,80.36
2022-12-25T01:57:42.773Z,80.39
2022-12-25T01:58:03.836Z,80.34
2022-12-25T01:58:24.905Z,80.38
2022-12-25T01:58:45.971Z,80.35
2022-12-25T01:59:07.049Z,80.36
2022-12-25T01:59:28.122Z,80.37
2022-12-25T01:59:49.153Z,80.35
2022-12-25T02:00:10.219Z,80.35
2022-12-25T02:00:31.275Z,80.36
2022-12-25T02:00:52.392Z,80.36
2022-12-25T02:01:13.795Z,80.35
2022-12-25T02:01:35.004Z,80.35
2022-12-25T02:01:56.173Z,80.36
2022-12-25T02:02:17.410Z,80.38
2022-12-25T02:02:38.665Z,80.39
2022-12-25T02:02:59.865Z,80.48
2022-12-25T02:03:20.956Z,80.48
2022-12-25T02:03:42.024Z,80.50
2022-12-25T02:04:03.082Z,80.53
2022-12-25T02:04:24.151Z,80.54
2022-12-25T02:04:45.217Z,80.53
2022-12-25T02:05:06.273Z,80.55
2022-12-25T02:05:27.344Z,80.53
2022-12-25T02:05:48.468Z,80.57
2022-12-25T02:06:09.524Z,80.58
2022-12-25T02:06:30.578Z,80.60
2022-12-25T02:06:51.642Z,80.64
2022-12-25T02:07:12.701Z,80.60
2022-12-25T02:07:33.764Z,80.63
2022-12-25T02:07:54.842Z,80.66
2022-12-25T02:08:15.886Z,80.65
2022-12-25T02:08:36.944Z,80.66
2022-12-25T02:08:58.001Z,80.61
2022-12-25T02:09:19.065Z,80.61
2022-12-25T02:09:40.126Z,80.58
2022-12-25T02:10:01.176Z,80.62
2022-12-25T02:10:22.236Z,80.62
2022-12-25T02:10:43.348Z,80.63
2022-12-25T02:11:04.402Z,80.62
2022-12-25T02:11:25.475Z,80.58
2022-12-25T02:11:46.548Z,80.60
2022-12-25T02:12:07.608Z,80.61
2022-12-25T02:12:28.663Z,80.62
2022-12-25T02:12:49.749Z,80.70
2022-12-25T02:13:10.829Z,80.64
2022-12-25T02:13:31.869Z,80.67
2022-12-25T02:13:52.933Z,80.67
2022-12-25T02:14:13.994Z,80.69
2022-12-25T02:14:35.097Z,80.68
2022-12-25T02:15:01.106Z,80.68
2022-12-25T02:15:23.108Z,80.77
2022-12-25T02:15:44.161Z,80.72
2022-12-25T02:16:05.266Z,80.70
2022-12-25T02:16:26.347Z,80.71
2022-12-25T02:16:57.941Z,80.70
2022-12-25T02:17:14.485Z,80.77
2022-12-25T02:17:35.551Z,80.77
2022-12-25T02:17:56.620Z,80.78
2022-12-25T02:18:17.695Z,80.84
2022-12-25T02:18:38.736Z,80.91
2022-12-25T02:18:59.789Z,80.93
2022-12-25T02:19:20.850Z,80.93
2022-12-25T02:19:41.913Z,80.94
2022-12-25T02:20:03.004Z,80.99
2022-12-25T02:20:24.033Z,81.03
2022-12-25T02:20:45.094Z,81.07
2022-12-25T02:21:06.159Z,81.01
2022-12-25T02:21:27.220Z,81.11
2022-12-25T02:21:48.308Z,81.12
2022-12-25T02:22:09.362Z,81.08
2022-12-25T02:22:30.434Z,81.07
2022-12-25T02:22:51.585Z,81.02
2022-12-25T02:23:12.624Z,80.98
2022-12-25T02:23:33.695Z,80.93
2022-12-25T02:23:54.756Z,80.93
2022-12-25T02:24:15.821Z,80.86
2022-12-25T02:24:36.877Z,80.85
2022-12-25T02:24:58.051Z,80.85
2022-12-25T02:25:19.059Z,80.89
2022-12-25T02:25:40.134Z,80.87
2022-12-25T02:26:01.203Z,80.80
2022-12-25T02:26:22.297Z,80.81
2022-12-25T02:26:43.323Z,80.80
2022-12-25T02:27:04.654Z,80.76
2022-12-25T02:27:25.679Z,80.78
2022-12-25T02:27:46.742Z,80.76
2022-12-25T02:28:07.794Z,80.73
2022-12-25T02:28:28.860Z,80.69
2022-12-25T02:28:49.929Z,80.72
2022-12-25T02:29:10.994Z,80.72
2022-12-25T02:29:32.129Z,80.69
2022-12-25T02:29:53.176Z,80.63
2022-12-25T02:30:14.214Z,80.68
2022-12-25T02:30:35.268Z,80.76
2022-12-25T02:30:56.319Z,80.78
2022-12-25T02:31:17.473Z,80.82
2022-12-25T02:31:38.636Z,80.87
2022-12-25T02:31:59.779Z,80.84
2022-12-25T02:32:20.872Z,80.86
2022-12-25T02:32:41.898Z,80.82
2022-12-25T02:33:02.953Z,80.76
2022-12-25T02:33:24.012Z,80.82
2022-12-25T02:33:45.147Z,80.70
2022-12-25T02:34:06.169Z,80.68
2022-12-25T02:34:27.231Z,80.75
2022-12-25T02:34:48.289Z,80.70
2022-12-25T02:35:09.364Z,80.72
2022-12-25T02:35:30.401Z,80.72
2022-12-25T02:35:51.507Z,80.77
2022-12-25T02:36:12.531Z,80.77
2022-12-25T02:36:33.579Z,80.76
2022-12-25T02:36:54.663Z,80.77
2022-12-25T02:37:15.704Z,80.73
2022-12-25T02:37:36.912Z,80.68
2022-12-25T02:37:57.988Z,80.72
2022-12-25T02:38:19.041Z,80.63
2022-12-25T02:38:40.136Z,80.64
2022-12-25T02:39:01.190Z,80.60
2022-12-25T02:39:22.311Z,80.65
2022-12-25T02:39:43.343Z,80.64
2022-12-25T02:40:04.429Z,80.62
2022-12-25T02:40:25.482Z,80.62
2022-12-25T02:40:46.529Z,80.67
2022-12-25T02:41:07.601Z,80.64
2022-12-25T02:41:28.646Z,80.63
2022-12-25T02:41:49.705Z,80.60
2022-12-25T02:42:10.807Z,80.60
2022-12-25T02:42:31.844Z,80.67
2022-12-25T02:42:53.064Z,80.69
2022-12-25T02:43:14.112Z,80.68
2022-12-25T02:43:35.172Z,80.68
2022-12-25T02:43:56.231Z,80.70
2022-12-25T02:44:17.320Z,80.71
2022-12-25T02:44:38.361Z,80.65
2022-12-25T02:44:59.439Z,80.66
2022-12-25T02:45:20.477Z,80.66
2022-12-25T02:45:41.574Z,80.67
2022-12-25T02:46:02.825Z,80.74
2022-12-25T02:46:23.958Z,80.76
2022-12-25T02:46:45.009Z,80.69
2022-12-25T02:47:06.051Z,80.74
2022-12-25T02:47:27.107Z,80.70
2022-12-25T02:47:48.198Z,80.77
2022-12-25T02:48:09.403Z,80.78
2022-12-25T02:48:30.461Z,80.79
2022-12-25T02:48:51.530Z,80.78
2022-12-25T02:49:12.591Z,80.75
2022-12-25T02:49:33.645Z,80.79
2022-12-25T02:49:54.697Z,80.83
2022-12-25T02:50:15.773Z,80.83
2022-12-25T02:50:36.816Z,80.81
2022-12-25T02:50:57.879Z,80.86
2022-12-25T02:51:18.951Z,80.83
2022-12-25T02:51:40.002Z,80.85
2022-12-25T02:52:01.064Z,80.91
2022-12-25T02:52:22.122Z,80.89
2022-12-25T02:52:43.187Z,80.88
2022-12-25T02:53:04.244Z,80.90
2022-12-25T02:53:25.461Z,80.87
2022-12-25T02:53:46.506Z,80.88
2022-12-25T02:54:07.563Z,80.92
2022-12-25T02:54:28.619Z,80.87
2022-12-25T02:54:49.682Z,80.91
2022-12-25T02:55:10.764Z,80.86
2022-12-25T02:55:31.814Z,80.88
2022-12-25T02:55:52.865Z,80.87
2022-12-25T02:56:13.965Z,80.87
2022-12-25T02:56:34.980Z,80.88
2022-12-25T02:56:56.062Z,80.83
2022-12-25T02:57:17.108Z,80.85
2022-12-25T02:57:38.171Z,80.82
2022-12-25T02:57:59.236Z,80.85
2022-12-25T02:58:20.306Z,80.90
2022-12-25T02:58:41.387Z,80.85
2022-12-25T02:59:02.440Z,80.87
2022-12-25T02:59:23.495Z,80.85
2022-12-25T02:59:44.553Z,80.89
2022-12-25T03:00:05.626Z,80.89
2022-12-25T03:00:26.676Z,80.92
2022-12-25T03:00:47.774Z,80.96
2022-12-25T03:01:08.864Z,80.94
2022-12-25T03:01:30.060Z,80.96
2022-12-25T03:01:51.242Z,81.04
2022-12-25T03:02:12.549Z,81.03
2022-12-25T03:02:33.709Z,80.99
2022-12-25T03:02:54.909Z,81.02
2022-12-25T03:03:15.995Z,81.04
2022-12-25T03:03:37.138Z,81.06
2022-12-25T03:03:58.316Z,81.08
2022-12-25T03:04:19.379Z,81.01
2022-12-25T03:04:40.450Z,80.97
2022-12-25T03:05:01.550Z,80.94
2022-12-25T03:05:22.569Z,80.89
2022-12-25T03:05:43.646Z,80.92
2022-12-25T03:06:04.734Z,80.89
2022-12-25T03:06:25.793Z,80.94
2022-12-25T03:06:46.894Z,80.95
2022-12-25T03:07:07.916Z,80.97
2022-12-25T03:07:29.008Z,80.89
2022-12-25T03:07:50.097Z,80.96
2022-12-25T03:08:11.158Z,80.89
2022-12-25T03:08:32.220Z,80.90
2022-12-25T03:08:53.325Z,80.96
2022-12-25T03:09:14.359Z,80.97
2022-12-25T03:09:35.421Z,80.95
2022-12-25T03:09:56.505Z,80.98
2022-12-25T03:10:17.575Z,80.94
2022-12-25T03:10:38.612Z,80.97
2022-12-25T03:10:59.682Z,80.97
2022-12-25T03:11:20.742Z,80.97
2022-12-25T03:11:41.786Z,80.90
2022-12-25T03:12:02.872Z,80.91
2022-12-25T03:12:23.935Z,80.84
2022-12-25T03:12:44.970Z,80.84
2022-12-25T03:13:06.028Z,80.83
2022-12-25T03:13:27.094Z,80.83
2022-12-25T03:13:48.173Z,80.81
2022-12-25T03:14:09.393Z,80.81
2022-12-25T03:14:30.455Z,80.80
2022-12-25T03:14:51.550Z,80.87
2022-12-25T03:15:12.671Z,80.90
2022-12-25T03:15:33.708Z,80.93
2022-12-25T03:15:54.775Z,80.95
2022-12-25T03:16:15.867Z,80.99
2022-12-25T03:16:37.029Z,80.98
2022-12-25T03:16:58.135Z,81.05
2022-12-25T03:17:19.192Z,81.04
2022-12-25T03:17:40.279Z,81.09
2022-12-25T03:18:01.355Z,81.06
2022-12-25T03:18:22.417Z,81.09
2022-12-25T03:18:43.475Z,81.08
2022-12-25T03:19:04.523Z,81.09
2022-12-25T03:19:25.758Z,81.10
2022-12-25T03:19:46.809Z,81.10
2022-12-25T03:20:07.868Z,81.10
2022-12-25T03:20:28.944Z,81.18
2022-12-25T03:20:49.991Z,81.15
2022-12-25T03:21:11.323Z,81.12
2022-12-25T03:21:32.359Z,81.17
2022-12-25T03:21:53.411Z,81.12
2022-12-25T03:22:14.539Z,81.11
2022-12-25T03:22:35.582Z,81.12
2022-12-25T03:22:56.624Z,81.13
2022-12-25T03:23:17.664Z,81.16
2022-12-25T03:23:38.792Z,81.16
2022-12-25T03:23:59.835Z,81.15
2022-12-25T03:24:20.928Z,81.18
2022-12-25T03:24:41.979Z,81.17
2022-12-25T03:25:03.034Z,81.14
2022-12-25T03:25:24.091Z,81.14
2022-12-25T03:25:45.163Z,81.11
2022-12-25T03:26:06.244Z,81.10
2022-12-25T03:26:27.284Z,81.00
2022-12-25T03:26:48.347Z,80.95
2022-12-25T03:27:09.392Z,80.88
2022-12-25T03:27:30.446Z,80.89
2022-12-25T03:27:51.522Z,80.90
2022-12-25T03:28:12.561Z,80.93
2022-12-25T03:28:33.668Z,80.93
2022-12-25T03:28:54.696Z,80.91
2022-12-25T03:29:15.761Z,80.97
2022-12-25T03:29:36.816Z,80.99
2022-12-25T03:29:57.946Z,80.99
2022-12-25T03:30:19.042Z,81.01
2022-12-25T03:30:40.147Z,80.98
2022-12-25T03:31:01.267Z,80.97
2022-12-25T03:31:22.394Z,80.95
2022-12-25T03:31:43.413Z,80.97
2022-12-25T03:32:04.564Z,80.90
2022-12-25T03:32:25.615Z,80.92
2022-12-25T03:32:46.682Z,80.88
2022-12-25T03:33:36.714Z,80.88
2022-12-25T03:33:44.878Z,80.92
2022-12-25T03:34:01.747Z,80.97
2022-12-25T03:34:22.813Z,80.93
2022-12-25T03:34:43.861Z,80.88
2022-12-25T03:35:06.388Z,80.88
2022-12-25T03:35:27.523Z,80.89
2022-12-25T03:35:48.560Z,80.85
2022-12-25T03:36:09.601Z,80.87
2022-12-25T03:36:30.662Z,80.85
2022-12-25T03:36:51.716Z,80.85
2022-12-25T03:37:12.767Z,80.83
2022-12-25T03:37:33.885Z,80.84
2022-12-25T03:37:54.921Z,80.76
2022-12-25T03:38:15.985Z,80.75
2022-12-25T03:38:37.034Z,80.77
2022-12-25T03:38:58.095Z,80.75
2022-12-25T03:39:19.144Z,80.73
2022-12-25T03:39:40.249Z,80.71
2022-12-25T03:40:01.285Z,80.68
2022-12-25T03:40:22.508Z,80.64
2022-12-25T03:40:43.559Z,80.73
2022-12-25T03:41:04.612Z,80.70
2022-12-25T03:41:25.683Z,80.70
2022-12-25T03:41:46.730Z,80.68
2022-12-25T03:42:07.796Z,80.67
2022-12-25T03:42:28.848Z,80.66
2022-12-25T03:42:49.903Z,80.66
2022-12-25T03:43:10.959Z,80.67
2022-12-25T03:43:32.021Z,80.64
2022-12-25T03:43:53.088Z,80.62
2022-12-25T03:44:14.154Z,80.65
2022-12-25T03:44:35.216Z,80.59
2022-12-25T03:44:56.258Z,80.61
2022-12-25T03:45:17.317Z,80.60
2022-12-25T03:45:38.448Z,80.55
2022-12-25T03:45:59.508Z,80.55
2022-12-25T03:46:20.637Z,80.54
2022-12-25T03:46:41.813Z,80.56
2022-12-25T03:47:02.856Z,80.51
2022-12-25T03:47:23.906Z,80.53
2022-12-25T03:47:44.964Z,80.55
2022-12-25T03:48:06.037Z,80.55
2022-12-25T03:48:27.085Z,80.52
2022-12-25T03:48:48.160Z,80.54
2022-12-25T03:49:09.220Z,80.51
2022-12-25T03:49:30.267Z,80.51
2022-12-25T03:49:51.329Z,80.52
2022-12-25T03:50:12.390Z,80.53
2022-12-25T03:50:33.448Z,80.48
2022-12-25T03:50:54.542Z,80.49
2022-12-25T03:51:15.662Z,80.52
2022-12-25T03:51:36.708Z,80.51
2022-12-25T03:51:57.765Z,80.52
2022-12-25T03:52:18.836Z,80.49
2022-12-25T03:52:39.887Z,80.47
2022-12-25T03:53:00.941Z,80.43
2022-12-25T03:53:22.026Z,80.43
2022-12-25T03:53:43.071Z,80.43
2022-12-25T03:54:04.124Z,80.43
2022-12-25T03:54:25.187Z,80.43
2022-12-25T03:54:46.229Z,80.39
2022-12-25T03:55:07.336Z,80.41
2022-12-25T03:55:28.365Z,80.43
2022-12-25T03:55:49.428Z,80.44
2022-12-25T03:56:10.533Z,80.44
2022-12-25T03:56:31.593Z,80.35
2022-12-25T03:56:52.648Z,80.37
2022-12-25T03:57:13.712Z,80.35
2022-12-25T03:57:34.762Z,80.30
2022-12-25T03:57:55.860Z,80.31
2022-12-25T03:58:16.913Z,80.31
2022-12-25T03:58:37.974Z,80.30
2022-12-25T03:58:59.031Z,80.30
2022-12-25T03:59:23.780Z,80.26
2022-12-25T03:59:45.282Z,80.30
2022-12-25T04:00:06.359Z,80.20
2022-12-25T04:00:27.443Z,80.28
2022-12-25T04:00:48.491Z,80.19
2022-12-25T04:01:09.601Z,80.18
2022-12-25T04:01:30.832Z,80.27
2022-12-25T04:01:52.098Z,80.23
2022-12-25T04:02:13.382Z,80.29
2022-12-25T04:02:34.680Z,80.25
2022-12-25T04:02:55.988Z,80.23
2022-12-25T04:03:17.180Z,80.24
2022-12-25T04:03:38.314Z,80.21
2022-12-25T04:03:59.399Z,80.22
2022-12-25T04:04:20.466Z,80.15
2022-12-25T04:04:41.523Z,80.16
2022-12-25T04:05:02.574Z,80.13
2022-12-25T04:05:23.623Z,80.09
2022-12-25T04:05:44.688Z,80.12
2022-12-25T04:06:05.734Z,80.06
2022-12-25T04:06:26.801Z,80.05
2022-12-25T04:06:47.879Z,80.11
2022-12-25T04:07:08.957Z,80.10
2022-12-25T04:07:30.023Z,80.09
2022-12-25T04:07:51.061Z,80.14
2022-12-25T04:08:12.117Z,80.08
2022-12-25T04:08:33.180Z,80.08
2022-12-25T04:08:54.233Z,80.11
2022-12-25T04:09:15.292Z,80.07
2022-12-25T04:09:36.367Z,80.09
2022-12-25T04:09:57.442Z,80.14
2022-12-25T04:10:18.498Z,80.11
2022-12-25T04:10:39.551Z,80.08
2022-12-25T04:11:00.608Z,80.04
2022-12-25T04:11:21.662Z,80.04
2022-12-25T04:11:42.740Z,79.97
2022-12-25T04:12:03.934Z,79.97
2022-12-25T04:12:24.991Z,79.93
2022-12-25T04:12:46.048Z,79.93
2022-12-25T04:13:07.113Z,79.95
2022-12-25T04:13:28.160Z,79.97
2022-12-25T04:13:49.214Z,80.03
2022-12-25T04:14:10.285Z,79.97
2022-12-25T04:14:31.332Z,80.01
2022-12-25T04:14:52.393Z,79.97
2022-12-25T04:15:13.447Z,79.96
2022-12-25T04:15:34.548Z,79.93
2022-12-25T04:15:55.636Z,79.92
2022-12-25T04:16:16.747Z,79.92
2022-12-25T04:16:37.797Z,79.89
2022-12-25T04:16:58.887Z,79.86
2022-12-25T04:17:19.955Z,79.88
2022-12-25T04:17:41.016Z,79.87
2022-12-25T04:18:02.076Z,79.86
2022-12-25T04:18:23.172Z,79.92
2022-12-25T04:18:44.242Z,79.94
2022-12-25T04:19:05.314Z,79.98
2022-12-25T04:19:26.368Z,79.90
2022-12-25T04:19:47.431Z,79.86
2022-12-25T04:20:08.494Z,79.86
2022-12-25T04:20:29.550Z,79.79
2022-12-25T04:20:50.611Z,79.83
2022-12-25T04:21:11.687Z,79.84
2022-12-25T04:21:32.744Z,79.84
2022-12-25T04:21:53.793Z,79.89
2022-12-25T04:22:14.995Z,79.82
2022-12-25T04:22:36.214Z,79.85
2022-12-25T04:22:57.262Z,79.81
2022-12-25T04:23:18.321Z,79.85
2022-12-25T04:23:39.395Z,79.80
2022-12-25T04:24:00.446Z,79.78
2022-12-25T04:24:21.494Z,79.79
2022-12-25T04:24:42.574Z,79.81
2022-12-25T04:25:03.643Z,79.83
2022-12-25T04:25:24.700Z,79.84
2022-12-25T04:25:45.751Z,79.85
2022-12-25T04:26:06.844Z,79.89
2022-12-25T04:26:27.903Z,79.87
2022-12-25T04:26:48.959Z,79.89
2022-12-25T04:27:10.018Z,79.88
2022-12-25T04:27:31.096Z,79.90
2022-12-25T04:27:52.185Z,79.92
2022-12-25T04:28:13.219Z,79.92
2022-12-25T04:28:34.304Z,79.90
2022-12-25T04:28:55.345Z,79.91
2022-12-25T04:29:16.403Z,79.94
2022-12-25T04:29:37.458Z,79.95
2022-12-25T04:29:58.534Z,79.97
2022-12-25T04:30:19.601Z,79.99
2022-12-25T04:30:40.650Z,79.97
2022-12-25T04:31:01.810Z,79.98
2022-12-25T04:31:22.868Z,79.95
2022-12-25T04:31:43.980Z,79.95
2022-12-25T04:32:05.024Z,79.96